sensor_id;sensor_type;location;lat;lon;timestamp;temperature;humidity
69546;SHT31;56766;52.260;20.746;2023-07-30T00:00:22;18.69;85.50
69546;SHT31;56766;52.260;20.746;2023-07-30T00:03:08;18.70;85.57
69546;SHT31;56766;52.260;20.746;2023-07-30T00:05:34;18.72;85.50
69546;SHT31;56766;52.260;20.746;2023-07-30T00:08:00;18.73;85.50
69546;SHT31;56766;52.260;20.746;2023-07-30T00:10:26;18.74;85.56
69546;SHT31;56766;52.260;20.746;2023-07-30T00:12:52;18.75;85.60
69546;SHT31;56766;52.260;20.746;2023-07-30T00:15:18;18.76;85.54
69546;SHT31;56766;52.260;20.746;2023-07-30T00:17:44;18.76;85.55
69546;SHT31;56766;52.260;20.746;2023-07-30T00:20:10;18.77;85.66
69546;SHT31;56766;52.260;20.746;2023-07-30T00:22:36;18.77;85.74
69546;SHT31;56766;52.260;20.746;2023-07-30T00:25:02;18.80;85.72
69546;SHT31;56766;52.260;20.746;2023-07-30T00:27:29;18.81;85.80
69546;SHT31;56766;52.260;20.746;2023-07-30T00:29:55;18.81;85.78
69546;SHT31;56766;52.260;20.746;2023-07-30T00:32:21;18.81;85.70
69546;SHT31;56766;52.260;20.746;2023-07-30T00:34:46;18.82;85.69
69546;SHT31;56766;52.260;20.746;2023-07-30T00:37:12;18.81;85.68
69546;SHT31;56766;52.260;20.746;2023-07-30T00:39:38;18.79;85.64
69546;SHT31;56766;52.260;20.746;2023-07-30T00:42:05;18.75;85.69
69546;SHT31;56766;52.260;20.746;2023-07-30T00:44:31;18.73;85.69
69546;SHT31;56766;52.260;20.746;2023-07-30T00:46:57;18.69;85.62
69546;SHT31;56766;52.260;20.746;2023-07-30T00:49:23;18.67;85.57
69546;SHT31;56766;52.260;20.746;2023-07-30T00:51:50;18.66;85.53
69546;SHT31;56766;52.260;20.746;2023-07-30T00:54:16;18.64;85.56
69546;SHT31;56766;52.260;20.746;2023-07-30T00:56:50;18.62;85.60
69546;SHT31;56766;52.260;20.746;2023-07-30T00:59:20;18.62;85.73
69546;SHT31;56766;52.260;20.746;2023-07-30T01:01:49;18.59;85.80
69546;SHT31;56766;52.260;20.746;2023-07-30T01:04:17;18.55;85.88
69546;SHT31;56766;52.260;20.746;2023-07-30T01:06:45;18.52;85.90
69546;SHT31;56766;52.260;20.746;2023-07-30T01:09:12;18.48;85.97
69546;SHT31;56766;52.260;20.746;2023-07-30T01:11:39;18.46;86.12
69546;SHT31;56766;52.260;20.746;2023-07-30T01:14:09;18.41;86.19
69546;SHT31;56766;52.260;20.746;2023-07-30T01:16:36;18.40;86.15
69546;SHT31;56766;52.260;20.746;2023-07-30T01:19:02;18.38;86.19
69546;SHT31;56766;52.260;20.746;2023-07-30T01:21:34;18.37;86.13
69546;SHT31;56766;52.260;20.746;2023-07-30T01:27:30;18.34;86.23
69546;SHT31;56766;52.260;20.746;2023-07-30T01:30:22;18.33;86.26
69546;SHT31;56766;52.260;20.746;2023-07-30T01:32:53;18.33;86.24
69546;SHT31;56766;52.260;20.746;2023-07-30T01:35:21;18.33;86.15
69546;SHT31;56766;52.260;20.746;2023-07-30T01:37:51;18.32;86.16
69546;SHT31;56766;52.260;20.746;2023-07-30T01:40:18;18.32;86.15
69546;SHT31;56766;52.260;20.746;2023-07-30T01:42:44;18.30;86.07
69546;SHT31;56766;52.260;20.746;2023-07-30T01:45:10;18.29;86.10
69546;SHT31;56766;52.260;20.746;2023-07-30T01:47:36;18.28;86.07
69546;SHT31;56766;52.260;20.746;2023-07-30T01:50:02;18.27;86.11
69546;SHT31;56766;52.260;20.746;2023-07-30T01:52:28;18.26;86.07
69546;SHT31;56766;52.260;20.746;2023-07-30T01:54:55;18.25;86.10
69546;SHT31;56766;52.260;20.746;2023-07-30T01:57:22;18.22;86.10
69546;SHT31;56766;52.260;20.746;2023-07-30T01:59:48;18.20;86.21
69546;SHT31;56766;52.260;20.746;2023-07-30T02:02:14;18.18;86.29
69546;SHT31;56766;52.260;20.746;2023-07-30T02:04:39;18.15;86.40
69546;SHT31;56766;52.260;20.746;2023-07-30T02:07:05;18.12;86.50
69546;SHT31;56766;52.260;20.746;2023-07-30T02:09:31;18.11;86.58
69546;SHT31;56766;52.260;20.746;2023-07-30T02:11:57;18.10;86.68
69546;SHT31;56766;52.260;20.746;2023-07-30T02:14:23;18.10;86.80
69546;SHT31;56766;52.260;20.746;2023-07-30T02:16:49;18.10;86.84
69546;SHT31;56766;52.260;20.746;2023-07-30T02:19:15;18.11;86.96
69546;SHT31;56766;52.260;20.746;2023-07-30T02:21:41;18.13;87.01
69546;SHT31;56766;52.260;20.746;2023-07-30T02:24:09;18.16;87.10
69546;SHT31;56766;52.260;20.746;2023-07-30T02:26:38;18.20;87.17
69546;SHT31;56766;52.260;20.746;2023-07-30T02:29:04;18.22;87.32
69546;SHT31;56766;52.260;20.746;2023-07-30T02:31:31;18.25;87.40
69546;SHT31;56766;52.260;20.746;2023-07-30T02:33:57;18.27;87.44
69546;SHT31;56766;52.260;20.746;2023-07-30T02:36:24;18.30;87.50
69546;SHT31;56766;52.260;20.746;2023-07-30T02:38:50;18.32;87.49
69546;SHT31;56766;52.260;20.746;2023-07-30T02:41:16;18.36;87.50
69546;SHT31;56766;52.260;20.746;2023-07-30T02:43:43;18.38;87.50
69546;SHT31;56766;52.260;20.746;2023-07-30T02:46:09;18.39;87.48
69546;SHT31;56766;52.260;20.746;2023-07-30T02:48:35;18.40;87.40
69546;SHT31;56766;52.260;20.746;2023-07-30T02:51:01;18.39;87.42
69546;SHT31;56766;52.260;20.746;2023-07-30T02:53:28;18.37;87.49
69546;SHT31;56766;52.260;20.746;2023-07-30T02:55:55;18.37;87.41
69546;SHT31;56766;52.260;20.746;2023-07-30T02:58:21;18.37;87.34
69546;SHT31;56766;52.260;20.746;2023-07-30T03:00:47;18.35;87.35
69546;SHT31;56766;52.260;20.746;2023-07-30T03:03:13;18.34;87.33
69546;SHT31;56766;52.260;20.746;2023-07-30T03:05:43;18.34;87.30
69546;SHT31;56766;52.260;20.746;2023-07-30T03:08:09;18.36;87.40
69546;SHT31;56766;52.260;20.746;2023-07-30T03:10:38;18.37;87.44
69546;SHT31;56766;52.260;20.746;2023-07-30T03:13:04;18.40;87.50
69546;SHT31;56766;52.260;20.746;2023-07-30T03:15:30;18.41;87.50
69546;SHT31;56766;52.260;20.746;2023-07-30T03:17:56;18.43;87.50
69546;SHT31;56766;52.260;20.746;2023-07-30T03:20:23;18.46;87.50
69546;SHT31;56766;52.260;20.746;2023-07-30T03:22:56;18.48;87.49
69546;SHT31;56766;52.260;20.746;2023-07-30T03:25:22;18.49;87.50
69546;SHT31;56766;52.260;20.746;2023-07-30T03:27:48;18.50;87.51
69546;SHT31;56766;52.260;20.746;2023-07-30T03:30:14;18.52;87.52
69546;SHT31;56766;52.260;20.746;2023-07-30T03:32:43;18.53;87.55
69546;SHT31;56766;52.260;20.746;2023-07-30T03:35:09;18.55;87.56
69546;SHT31;56766;52.260;20.746;2023-07-30T03:37:35;18.60;87.50
69546;SHT31;56766;52.260;20.746;2023-07-30T03:40:01;18.66;87.48
69546;SHT31;56766;52.260;20.746;2023-07-30T03:42:27;18.69;87.44
69546;SHT31;56766;52.260;20.746;2023-07-30T03:44:52;18.71;87.40
69546;SHT31;56766;52.260;20.746;2023-07-30T03:47:18;18.76;87.31
69546;SHT31;56766;52.260;20.746;2023-07-30T03:49:44;18.82;87.29
69546;SHT31;56766;52.260;20.746;2023-07-30T03:52:10;18.89;87.15
69546;SHT31;56766;52.260;20.746;2023-07-30T03:54:36;18.88;87.00
69546;SHT31;56766;52.260;20.746;2023-07-30T03:57:03;18.88;87.00
69546;SHT31;56766;52.260;20.746;2023-07-30T03:59:29;18.89;86.94
69546;SHT31;56766;52.260;20.746;2023-07-30T04:02:00;18.90;86.91
69546;SHT31;56766;52.260;20.746;2023-07-30T04:04:27;18.91;86.97
69546;SHT31;56766;52.260;20.746;2023-07-30T04:06:53;18.92;86.99
69546;SHT31;56766;52.260;20.746;2023-07-30T04:09:19;18.96;86.88
69546;SHT31;56766;52.260;20.746;2023-07-30T04:11:45;19.01;86.78
69546;SHT31;56766;52.260;20.746;2023-07-30T04:14:11;19.06;86.70
69546;SHT31;56766;52.260;20.746;2023-07-30T04:16:37;19.10;86.64
69546;SHT31;56766;52.260;20.746;2023-07-30T04:19:03;19.10;86.59
69546;SHT31;56766;52.260;20.746;2023-07-30T04:21:29;19.11;86.51
69546;SHT31;56766;52.260;20.746;2023-07-30T04:23:55;19.08;86.37
69546;SHT31;56766;52.260;20.746;2023-07-30T04:26:21;19.06;86.35
69546;SHT31;56766;52.260;20.746;2023-07-30T04:28:47;19.09;86.30
69546;SHT31;56766;52.260;20.746;2023-07-30T04:31:13;19.13;86.29
69546;SHT31;56766;52.260;20.746;2023-07-30T04:33:39;19.16;86.13
69546;SHT31;56766;52.260;20.746;2023-07-30T04:36:05;19.16;86.10
69546;SHT31;56766;52.260;20.746;2023-07-30T04:38:33;19.21;86.04
69546;SHT31;56766;52.260;20.746;2023-07-30T04:40:59;19.25;85.84
69546;SHT31;56766;52.260;20.746;2023-07-30T04:43:25;19.29;85.64
69546;SHT31;56766;52.260;20.746;2023-07-30T04:45:51;19.36;85.64
69546;SHT31;56766;52.260;20.746;2023-07-30T04:48:17;19.40;85.47
69546;SHT31;56766;52.260;20.746;2023-07-30T04:50:43;19.44;85.27
69546;SHT31;56766;52.260;20.746;2023-07-30T04:53:09;19.54;85.25
69546;SHT31;56766;52.260;20.746;2023-07-30T04:55:35;19.82;85.19
69546;SHT31;56766;52.260;20.746;2023-07-30T04:58:01;20.04;84.86
69546;SHT31;56766;52.260;20.746;2023-07-30T05:00:27;20.16;84.39
69546;SHT31;56766;52.260;20.746;2023-07-30T05:02:53;20.22;84.19
69546;SHT31;56766;52.260;20.746;2023-07-30T05:05:20;20.24;84.08
69546;SHT31;56766;52.260;20.746;2023-07-30T05:07:45;20.30;83.78
69546;SHT31;56766;52.260;20.746;2023-07-30T05:10:11;20.29;83.75
69546;SHT31;56766;52.260;20.746;2023-07-30T05:12:37;20.30;83.70
69546;SHT31;56766;52.260;20.746;2023-07-30T05:15:04;20.27;83.34
69546;SHT31;56766;52.260;20.746;2023-07-30T05:17:31;20.20;83.11
69546;SHT31;56766;52.260;20.746;2023-07-30T05:19:57;20.19;83.23
69546;SHT31;56766;52.260;20.746;2023-07-30T05:22:23;20.17;82.99
69546;SHT31;56766;52.260;20.746;2023-07-30T05:24:51;20.17;83.07
69546;SHT31;56766;52.260;20.746;2023-07-30T05:27:16;20.22;83.20
69546;SHT31;56766;52.260;20.746;2023-07-30T05:29:42;20.34;83.06
69546;SHT31;56766;52.260;20.746;2023-07-30T05:32:08;20.42;82.75
69546;SHT31;56766;52.260;20.746;2023-07-30T05:34:35;20.48;82.59
69546;SHT31;56766;52.260;20.746;2023-07-30T05:37:01;20.56;82.14
69546;SHT31;56766;52.260;20.746;2023-07-30T05:39:27;20.61;81.63
69546;SHT31;56766;52.260;20.746;2023-07-30T05:41:53;20.58;81.33
69546;SHT31;56766;52.260;20.746;2023-07-30T05:44:20;20.52;81.24
69546;SHT31;56766;52.260;20.746;2023-07-30T05:46:46;20.45;80.79
69546;SHT31;56766;52.260;20.746;2023-07-30T05:49:12;20.46;80.90
69546;SHT31;56766;52.260;20.746;2023-07-30T05:51:40;20.51;80.83
69546;SHT31;56766;52.260;20.746;2023-07-30T05:54:06;20.64;80.60
69546;SHT31;56766;52.260;20.746;2023-07-30T05:56:33;20.76;80.15
69546;SHT31;56766;52.260;20.746;2023-07-30T05:58:59;20.80;79.94
69546;SHT31;56766;52.260;20.746;2023-07-30T06:01:25;20.79;79.68
69546;SHT31;56766;52.260;20.746;2023-07-30T06:03:51;20.79;79.42
69546;SHT31;56766;52.260;20.746;2023-07-30T06:06:17;20.85;79.32
69546;SHT31;56766;52.260;20.746;2023-07-30T06:08:43;21.09;79.15
69546;SHT31;56766;52.260;20.746;2023-07-30T06:11:09;21.49;78.81
69546;SHT31;56766;52.260;20.746;2023-07-30T06:13:36;21.75;77.99
69546;SHT31;56766;52.260;20.746;2023-07-30T06:16:06;21.93;77.41
69546;SHT31;56766;52.260;20.746;2023-07-30T06:18:33;22.00;77.39
69546;SHT31;56766;52.260;20.746;2023-07-30T06:20:59;21.99;76.76
69546;SHT31;56766;52.260;20.746;2023-07-30T06:23:25;22.04;76.94
69546;SHT31;56766;52.260;20.746;2023-07-30T06:25:51;22.21;76.74
69546;SHT31;56766;52.260;20.746;2023-07-30T06:28:17;22.28;76.36
69546;SHT31;56766;52.260;20.746;2023-07-30T06:30:43;22.19;75.62
69546;SHT31;56766;52.260;20.746;2023-07-30T06:33:09;22.10;75.76
69546;SHT31;56766;52.260;20.746;2023-07-30T06:35:37;22.08;75.28
69546;SHT31;56766;52.260;20.746;2023-07-30T06:38:07;22.15;75.71
69546;SHT31;56766;52.260;20.746;2023-07-30T06:40:40;22.35;75.19
69546;SHT31;56766;52.260;20.746;2023-07-30T06:43:07;22.44;74.65
69546;SHT31;56766;52.260;20.746;2023-07-30T06:45:33;22.50;74.19
69546;SHT31;56766;52.260;20.746;2023-07-30T06:47:58;22.54;73.82
69546;SHT31;56766;52.260;20.746;2023-07-30T06:50:24;22.45;73.07
69546;SHT31;56766;52.260;20.746;2023-07-30T06:52:50;22.39;72.87
69546;SHT31;56766;52.260;20.746;2023-07-30T06:55:17;22.46;73.42
69546;SHT31;56766;52.260;20.746;2023-07-30T06:57:43;22.51;73.03
69546;SHT31;56766;52.260;20.746;2023-07-30T07:00:09;22.64;73.00
69546;SHT31;56766;52.260;20.746;2023-07-30T07:02:36;22.80;72.69
69546;SHT31;56766;52.260;20.746;2023-07-30T07:05:05;22.85;72.14
69546;SHT31;56766;52.260;20.746;2023-07-30T07:07:32;22.97;72.16
69546;SHT31;56766;52.260;20.746;2023-07-30T07:09:58;23.03;71.02
69546;SHT31;56766;52.260;20.746;2023-07-30T07:12:24;22.97;70.44
69546;SHT31;56766;52.260;20.746;2023-07-30T07:14:50;22.83;70.60
69546;SHT31;56766;52.260;20.746;2023-07-30T07:17:16;22.70;69.79
69546;SHT31;56766;52.260;20.746;2023-07-30T07:19:42;22.54;69.56
69546;SHT31;56766;52.260;20.746;2023-07-30T07:22:08;22.57;70.89
69546;SHT31;56766;52.260;20.746;2023-07-30T07:24:34;22.47;69.97
69546;SHT31;56766;52.260;20.746;2023-07-30T07:27:00;22.24;70.06
69546;SHT31;56766;52.260;20.746;2023-07-30T07:29:26;22.26;70.30
69546;SHT31;56766;52.260;20.746;2023-07-30T07:31:53;22.53;70.60
69546;SHT31;56766;52.260;20.746;2023-07-30T07:34:19;22.75;70.41
69546;SHT31;56766;52.260;20.746;2023-07-30T07:36:45;22.91;70.68
69546;SHT31;56766;52.260;20.746;2023-07-30T07:39:11;22.98;70.23
69546;SHT31;56766;52.260;20.746;2023-07-30T07:41:37;23.19;70.28
69546;SHT31;56766;52.260;20.746;2023-07-30T07:44:03;23.36;69.74
69546;SHT31;56766;52.260;20.746;2023-07-30T07:46:29;23.44;69.18
69546;SHT31;56766;52.260;20.746;2023-07-30T07:48:55;23.46;68.02
69546;SHT31;56766;52.260;20.746;2023-07-30T07:51:21;23.46;67.88
69546;SHT31;56766;52.260;20.746;2023-07-30T07:53:47;23.62;67.92
69546;SHT31;56766;52.260;20.746;2023-07-30T07:56:13;23.76;67.70
69546;SHT31;56766;52.260;20.746;2023-07-30T07:58:39;23.90;67.32
69546;SHT31;56766;52.260;20.746;2023-07-30T08:01:05;24.02;66.61
69546;SHT31;56766;52.260;20.746;2023-07-30T08:03:31;24.05;66.88
69546;SHT31;56766;52.260;20.746;2023-07-30T08:05:57;23.95;66.67
69546;SHT31;56766;52.260;20.746;2023-07-30T08:08:25;23.83;66.59
69546;SHT31;56766;52.260;20.746;2023-07-30T08:10:53;23.94;66.85
69546;SHT31;56766;52.260;20.746;2023-07-30T08:13:19;24.23;66.46
69546;SHT31;56766;52.260;20.746;2023-07-30T08:15:46;24.21;65.78
69546;SHT31;56766;52.260;20.746;2023-07-30T08:18:12;24.03;66.29
69546;SHT31;56766;52.260;20.746;2023-07-30T08:20:38;24.01;66.70
69546;SHT31;56766;52.260;20.746;2023-07-30T08:23:04;24.23;66.54
69546;SHT31;56766;52.260;20.746;2023-07-30T08:25:30;24.31;65.50
69546;SHT31;56766;52.260;20.746;2023-07-30T08:27:56;24.39;65.22
69546;SHT31;56766;52.260;20.746;2023-07-30T08:30:22;24.65;65.18
69546;SHT31;56766;52.260;20.746;2023-07-30T08:32:48;25.10;65.05
69546;SHT31;56766;52.260;20.746;2023-07-30T08:35:14;25.64;65.57
69546;SHT31;56766;52.260;20.746;2023-07-30T08:37:40;26.08;63.41
69546;SHT31;56766;52.260;20.746;2023-07-30T08:40:06;26.22;62.79
69546;SHT31;56766;52.260;20.746;2023-07-30T08:42:33;26.41;62.77
69546;SHT31;56766;52.260;20.746;2023-07-30T08:44:59;26.64;62.57
69546;SHT31;56766;52.260;20.746;2023-07-30T08:47:25;27.06;62.49
69546;SHT31;56766;52.260;20.746;2023-07-30T08:49:51;27.25;59.93
69546;SHT31;56766;52.260;20.746;2023-07-30T08:52:20;27.10;59.60
69546;SHT31;56766;52.260;20.746;2023-07-30T08:54:49;26.99;59.25
69546;SHT31;56766;52.260;20.746;2023-07-30T08:57:17;26.69;60.01
69546;SHT31;56766;52.260;20.746;2023-07-30T09:00:00;26.33;59.42
69546;SHT31;56766;52.260;20.746;2023-07-30T09:02:38;26.39;59.69
69546;SHT31;56766;52.260;20.746;2023-07-30T09:05:10;26.71;59.22
69546;SHT31;56766;52.260;20.746;2023-07-30T09:07:36;26.94;58.78
69546;SHT31;56766;52.260;20.746;2023-07-30T09:10:02;27.05;59.61
69546;SHT31;56766;52.260;20.746;2023-07-30T09:12:33;27.27;60.30
69546;SHT31;56766;52.260;20.746;2023-07-30T09:15:02;27.23;59.09
69546;SHT31;56766;52.260;20.746;2023-07-30T09:17:30;26.86;58.16
69546;SHT31;56766;52.260;20.746;2023-07-30T09:19:59;26.47;58.27
69546;SHT31;56766;52.260;20.746;2023-07-30T09:22:31;25.96;58.43
69546;SHT31;56766;52.260;20.746;2023-07-30T09:25:02;25.66;59.32
69546;SHT31;56766;52.260;20.746;2023-07-30T09:27:29;25.97;59.49
69546;SHT31;56766;52.260;20.746;2023-07-30T09:29:56;26.33;58.85
69546;SHT31;56766;52.260;20.746;2023-07-30T09:32:28;26.54;57.87
69546;SHT31;56766;52.260;20.746;2023-07-30T09:34:55;26.42;57.44
69546;SHT31;56766;52.260;20.746;2023-07-30T09:37:30;26.42;58.88
69546;SHT31;56766;52.260;20.746;2023-07-30T09:39:57;26.88;58.32
69546;SHT31;56766;52.260;20.746;2023-07-30T09:42:27;27.41;56.93
69546;SHT31;56766;52.260;20.746;2023-07-30T09:44:58;27.55;56.48
69546;SHT31;56766;52.260;20.746;2023-07-30T09:47:30;27.22;55.02
69546;SHT31;56766;52.260;20.746;2023-07-30T09:49:56;26.83;55.26
69546;SHT31;56766;52.260;20.746;2023-07-30T09:52:23;26.51;56.66
69546;SHT31;56766;52.260;20.746;2023-07-30T09:54:49;26.23;57.31
69546;SHT31;56766;52.260;20.746;2023-07-30T09:57:16;25.88;58.03
69546;SHT31;56766;52.260;20.746;2023-07-30T09:59:42;25.58;58.95
69546;SHT31;56766;52.260;20.746;2023-07-30T10:02:10;25.28;59.10
69546;SHT31;56766;52.260;20.746;2023-07-30T10:04:43;25.05;60.01
69546;SHT31;56766;52.260;20.746;2023-07-30T10:07:19;24.98;60.07
69546;SHT31;56766;52.260;20.746;2023-07-30T10:09:51;25.33;60.71
69546;SHT31;56766;52.260;20.746;2023-07-30T10:12:24;25.78;59.67
69546;SHT31;56766;52.260;20.746;2023-07-30T10:14:54;26.19;58.40
69546;SHT31;56766;52.260;20.746;2023-07-30T10:17:20;26.57;58.59
69546;SHT31;56766;52.260;20.746;2023-07-30T10:19:47;27.01;58.04
69546;SHT31;56766;52.260;20.746;2023-07-30T10:25:07;27.83;56.52
69546;SHT31;56766;52.260;20.746;2023-07-30T10:27:40;28.14;54.50
69546;SHT31;56766;52.260;20.746;2023-07-30T10:30:14;28.34;53.82
69546;SHT31;56766;52.260;20.746;2023-07-30T10:33:01;28.61;54.31
69546;SHT31;56766;52.260;20.746;2023-07-30T10:35:47;28.88;53.69
69546;SHT31;56766;52.260;20.746;2023-07-30T10:38:21;29.09;54.29
69546;SHT31;56766;52.260;20.746;2023-07-30T10:41:10;29.10;52.71
69546;SHT31;56766;52.260;20.746;2023-07-30T10:43:42;28.90;51.29
69546;SHT31;56766;52.260;20.746;2023-07-30T10:46:11;28.47;52.08
69546;SHT31;56766;52.260;20.746;2023-07-30T10:52:17;27.68;52.69
69546;SHT31;56766;52.260;20.746;2023-07-30T10:54:43;27.65;52.34
69546;SHT31;56766;52.260;20.746;2023-07-30T10:57:09;27.58;51.83
69546;SHT31;56766;52.260;20.746;2023-07-30T10:59:38;27.62;51.60
69546;SHT31;56766;52.260;20.746;2023-07-30T11:02:04;27.77;51.95
69546;SHT31;56766;52.260;20.746;2023-07-30T11:04:34;27.97;51.38
69546;SHT31;56766;52.260;20.746;2023-07-30T11:07:00;28.22;51.34
69546;SHT31;56766;52.260;20.746;2023-07-30T11:09:28;28.55;52.59
69546;SHT31;56766;52.260;20.746;2023-07-30T11:11:55;28.79;51.22
69546;SHT31;56766;52.260;20.746;2023-07-30T11:14:23;28.76;51.63
69546;SHT31;56766;52.260;20.746;2023-07-30T11:16:56;28.63;52.18
69546;SHT31;56766;52.260;20.746;2023-07-30T11:19:28;28.40;51.08
69546;SHT31;56766;52.260;20.746;2023-07-30T11:21:57;27.97;50.56
69546;SHT31;56766;52.260;20.746;2023-07-30T11:24:36;27.42;51.28
69546;SHT31;56766;52.260;20.746;2023-07-30T11:27:03;27.02;53.30
69546;SHT31;56766;52.260;20.746;2023-07-30T11:29:29;26.82;53.63
69546;SHT31;56766;52.260;20.746;2023-07-30T11:31:57;26.67;54.64
69546;SHT31;56766;52.260;20.746;2023-07-30T11:34:26;26.53;55.82
69546;SHT31;56766;52.260;20.746;2023-07-30T11:36:54;26.29;56.23
69546;SHT31;56766;52.260;20.746;2023-07-30T11:39:23;26.05;56.98
69546;SHT31;56766;52.260;20.746;2023-07-30T11:41:50;25.87;57.98
69546;SHT31;56766;52.260;20.746;2023-07-30T11:44:33;25.77;58.78
69546;SHT31;56766;52.260;20.746;2023-07-30T11:47:01;25.70;59.23
69546;SHT31;56766;52.260;20.746;2023-07-30T11:49:27;25.76;59.42
69546;SHT31;56766;52.260;20.746;2023-07-30T11:52:04;25.87;59.49
69546;SHT31;56766;52.260;20.746;2023-07-30T11:54:35;25.98;58.93
69546;SHT31;56766;52.260;20.746;2023-07-30T11:57:01;26.10;59.58
69546;SHT31;56766;52.260;20.746;2023-07-30T11:59:27;26.51;59.04
69546;SHT31;56766;52.260;20.746;2023-07-30T12:01:53;26.91;58.90
69546;SHT31;56766;52.260;20.746;2023-07-30T12:04:19;27.31;57.55
69546;SHT31;56766;52.260;20.746;2023-07-30T12:06:50;27.48;55.47
69546;SHT31;56766;52.260;20.746;2023-07-30T12:09:24;27.57;55.82
69546;SHT31;56766;52.260;20.746;2023-07-30T12:11:56;27.82;54.90
69546;SHT31;56766;52.260;20.746;2023-07-30T12:14:29;27.97;52.98
69546;SHT31;56766;52.260;20.746;2023-07-30T12:17:08;28.13;54.31
69546;SHT31;56766;52.260;20.746;2023-07-30T12:19:34;28.24;52.65
69546;SHT31;56766;52.260;20.746;2023-07-30T12:22:02;28.14;53.11
69546;SHT31;56766;52.260;20.746;2023-07-30T12:24:28;28.23;51.92
69546;SHT31;56766;52.260;20.746;2023-07-30T12:26:54;28.20;51.39
69546;SHT31;56766;52.260;20.746;2023-07-30T12:29:20;28.16;51.63
69546;SHT31;56766;52.260;20.746;2023-07-30T12:31:46;28.25;52.12
69546;SHT31;56766;52.260;20.746;2023-07-30T12:34:14;28.43;52.53
69546;SHT31;56766;52.260;20.746;2023-07-30T12:36:40;28.66;52.51
69546;SHT31;56766;52.260;20.746;2023-07-30T12:39:06;28.91;52.25
69546;SHT31;56766;52.260;20.746;2023-07-30T12:41:33;29.18;52.34
69546;SHT31;56766;52.260;20.746;2023-07-30T12:44:00;29.39;52.28
69546;SHT31;56766;52.260;20.746;2023-07-30T12:46:26;29.60;52.47
69546;SHT31;56766;52.260;20.746;2023-07-30T12:48:56;29.83;52.28
69546;SHT31;56766;52.260;20.746;2023-07-30T12:51:22;30.08;51.86
69546;SHT31;56766;52.260;20.746;2023-07-30T12:53:48;30.25;50.81
69546;SHT31;56766;52.260;20.746;2023-07-30T12:56:15;30.25;51.56
69546;SHT31;56766;52.260;20.746;2023-07-30T12:58:41;30.27;51.47
69546;SHT31;56766;52.260;20.746;2023-07-30T13:01:07;30.42;51.16
69546;SHT31;56766;52.260;20.746;2023-07-30T13:03:33;30.53;50.10
69546;SHT31;56766;52.260;20.746;2023-07-30T13:05:59;30.59;48.93
69546;SHT31;56766;52.260;20.746;2023-07-30T13:08:25;30.70;49.25
69546;SHT31;56766;52.260;20.746;2023-07-30T13:10:51;30.90;47.97
69546;SHT31;56766;52.260;20.746;2023-07-30T13:13:17;31.06;48.27
69546;SHT31;56766;52.260;20.746;2023-07-30T13:15:43;31.33;49.07
69546;SHT31;56766;52.260;20.746;2023-07-30T13:18:09;31.47;48.18
69546;SHT31;56766;52.260;20.746;2023-07-30T13:20:35;31.40;48.63
69546;SHT31;56766;52.260;20.746;2023-07-30T13:23:01;31.23;48.21
69546;SHT31;56766;52.260;20.746;2023-07-30T13:25:28;30.96;47.59
69546;SHT31;56766;52.260;20.746;2023-07-30T13:27:54;30.79;48.39
69546;SHT31;56766;52.260;20.746;2023-07-30T13:30:20;30.81;48.69
69546;SHT31;56766;52.260;20.746;2023-07-30T13:32:46;30.92;48.63
69546;SHT31;56766;52.260;20.746;2023-07-30T13:35:12;31.06;48.18
69546;SHT31;56766;52.260;20.746;2023-07-30T13:37:38;31.17;48.92
69546;SHT31;56766;52.260;20.746;2023-07-30T13:40:05;31.24;48.41
69546;SHT31;56766;52.260;20.746;2023-07-30T13:42:31;31.31;48.48
69546;SHT31;56766;52.260;20.746;2023-07-30T13:44:57;31.41;48.17
69546;SHT31;56766;52.260;20.746;2023-07-30T13:47:23;31.36;47.74
69546;SHT31;56766;52.260;20.746;2023-07-30T13:49:49;31.33;47.69
69546;SHT31;56766;52.260;20.746;2023-07-30T13:52:15;31.29;47.71
69546;SHT31;56766;52.260;20.746;2023-07-30T13:54:41;31.28;47.83
69546;SHT31;56766;52.260;20.746;2023-07-30T13:57:08;31.26;46.15
69546;SHT31;56766;52.260;20.746;2023-07-30T13:59:34;31.05;45.08
69546;SHT31;56766;52.260;20.746;2023-07-30T14:02:00;30.82;45.29
69546;SHT31;56766;52.260;20.746;2023-07-30T14:04:26;30.66;45.07
69546;SHT31;56766;52.260;20.746;2023-07-30T14:06:53;30.59;45.60
69546;SHT31;56766;52.260;20.746;2023-07-30T14:09:20;30.57;45.51
69546;SHT31;56766;52.260;20.746;2023-07-30T14:11:46;30.53;45.49
69546;SHT31;56766;52.260;20.746;2023-07-30T14:14:12;30.46;46.25
69546;SHT31;56766;52.260;20.746;2023-07-30T14:16:39;30.44;47.16
69546;SHT31;56766;52.260;20.746;2023-07-30T14:19:05;30.51;47.44
69546;SHT31;56766;52.260;20.746;2023-07-30T14:21:30;30.54;47.63
69546;SHT31;56766;52.260;20.746;2023-07-30T14:23:56;30.45;47.59
69546;SHT31;56766;52.260;20.746;2023-07-30T14:26:22;30.49;47.94
69546;SHT31;56766;52.260;20.746;2023-07-30T14:28:48;30.57;47.83
69546;SHT31;56766;52.260;20.746;2023-07-30T14:31:14;30.64;47.77
69546;SHT31;56766;52.260;20.746;2023-07-30T14:33:40;30.65;47.43
69546;SHT31;56766;52.260;20.746;2023-07-30T14:36:06;30.65;47.49
69546;SHT31;56766;52.260;20.746;2023-07-30T14:38:32;30.60;47.39
69546;SHT31;56766;52.260;20.746;2023-07-30T14:41:00;30.47;47.40
69546;SHT31;56766;52.260;20.746;2023-07-30T14:43:27;30.25;47.20
69546;SHT31;56766;52.260;20.746;2023-07-30T14:45:53;30.14;47.41
69546;SHT31;56766;52.260;20.746;2023-07-30T14:48:19;30.04;47.68
69546;SHT31;56766;52.260;20.746;2023-07-30T14:50:45;29.99;48.03
69546;SHT31;56766;52.260;20.746;2023-07-30T14:53:12;29.94;48.49
69546;SHT31;56766;52.260;20.746;2023-07-30T14:55:38;29.79;48.46
69546;SHT31;56766;52.260;20.746;2023-07-30T14:58:04;29.61;48.46
69546;SHT31;56766;52.260;20.746;2023-07-30T15:00:30;29.37;48.74
69546;SHT31;56766;52.260;20.746;2023-07-30T15:02:56;29.19;48.69
69546;SHT31;56766;52.260;20.746;2023-07-30T15:05:22;29.03;48.52
69546;SHT31;56766;52.260;20.746;2023-07-30T15:07:48;28.90;49.16
69546;SHT31;56766;52.260;20.746;2023-07-30T15:10:14;28.83;49.79
69546;SHT31;56766;52.260;20.746;2023-07-30T15:12:43;28.80;50.07
69546;SHT31;56766;52.260;20.746;2023-07-30T15:15:10;28.77;49.67
69546;SHT31;56766;52.260;20.746;2023-07-30T15:17:36;28.53;49.58
69546;SHT31;56766;52.260;20.746;2023-07-30T15:20:02;28.34;50.56
69546;SHT31;56766;52.260;20.746;2023-07-30T15:22:29;28.20;51.20
69546;SHT31;56766;52.260;20.746;2023-07-30T15:24:55;28.13;51.94